Flight Track Log - Related Links

Times and Time Zones

All times are in EDT time to prevent confusion due to time zone crossing. See the GJS3657 flight status page for this flight to view local times or setup timezone preferences in your user account.

Time Position Orientation Groundspeed Altitude Reporting Facility
EDT Latitude Longitude Course Direction KTS MPH feet Rate Location/Type
Fri 06:39:18 PM 36.1214 -80.0725 308° West 242 278 5,700  Level Atlanta Center
Fri 06:40:18 PM 36.1694 -80.1422 311° West 263 303 7,800 2,300 Climbing Atlanta Center
Fri 06:41:18 PM 36.2178 -80.2197 308° West 268 308 10,300 2,100 Climbing Atlanta Center
Fri 06:42:18 PM 36.2772 -80.3147 308° West 295 339 12,000 1,300 Climbing Atlanta Center
Fri 06:43:00 PM 36.4384 -80.5585 307° West  Level FlightAware Approximate
Fri 06:43:18 PM 36.3361 -80.4097 308° West 329 379 12,900  Level Atlanta Center
Fri 06:44:00 PM 36.4997 -80.6596 308° West  Level FlightAware Approximate
Fri 06:44:18 PM 36.4200 -80.4911 322° Northwest 362 417 14,600  Level Atlanta Center
Fri 06:45:18 PM 36.5156 -80.5517 333° Northwest 373 429 16,300 1,850 Climbing Atlanta Center
Fri 06:46:18 PM 36.6131 -80.6119 334° Northwest 395 455 18,300 1,750 Climbing Atlanta Center
Fri 06:47:18 PM 36.7086 -80.6750 332° Northwest 388 447 19,800 1,300 Climbing Atlanta Center
Fri 06:48:18 PM 36.7936 -80.7339 331° Northwest 388 447 20,900 1,150 Climbing Atlanta Center
Fri 06:49:18 PM 36.9042 -80.8044 333° Northwest 400 460 22,100 1,050 Climbing Atlanta Center
Fri 06:50:18 PM 37.0058 -80.8731 332° Northwest 406 467 23,000 879 Climbing Atlanta Center
Fri 06:51:55 PM 37.1797 -80.9814 334° Northwest 439 505 24,400 1,094 Climbing Indianapolis Center
Fri 06:52:57 PM 37.2839 -81.0483 333° Northwest 435 501 25,900 1,403 Climbing Indianapolis Center
Fri 06:53:59 PM 37.3739 -81.1250 326° Northwest 415 478 27,300 1,306 Climbing Indianapolis Center
Fri 06:55:01 PM 37.4389 -81.2681 300° West 399 459 28,600 968 Climbing Indianapolis Center
Fri 06:56:03 PM 37.4953 -81.3886 301° West 407 468 29,300 677 Climbing Indianapolis Center
Fri 06:57:05 PM 37.5500 -81.5292 296° West 415 478 30,000 677 Climbing Indianapolis Center
Fri 06:58:07 PM 37.5792 -81.6703 285° West 417 480 30,700 677 Climbing Indianapolis Center
Fri 06:59:09 PM 37.6114 -81.8139 286° West 424 488 31,400 677 Climbing Indianapolis Center
Fri 07:00:11 PM 37.6431 -81.9586 285° West 427 491 32,100 823 Climbing Indianapolis Center
Fri 07:01:13 PM 37.6864 -82.1258 288° West 429 494 33,100 919 Climbing Indianapolis Center
Fri 07:02:15 PM 37.7239 -82.2689 288° West 429 494 34,000 968 Climbing Indianapolis Center
Fri 07:03:17 PM 37.7586 -82.4081 288° West 419 482 35,100 1,065 Climbing Indianapolis Center
Fri 07:04:19 PM 37.7936 -82.5433 288° West 409 471 36,200 1,113 Climbing Indianapolis Center
Fri 07:05:21 PM 37.8381 -82.6942 291° West 396 456 37,400 871 Climbing Indianapolis Center
Fri 07:06:23 PM 37.8953 -82.8094 302° West 389 448 38,000 290 Climbing Indianapolis Center
Fri 07:07:25 PM 37.9531 -82.9247 302° West 388 447 38,000  Level Indianapolis Center
Fri 07:08:27 PM 38.0133 -83.0414 303° West 393 452 38,000  Level Indianapolis Center
Fri 07:09:29 PM 38.0742 -83.1583 303° West 397 457 38,000  Level Indianapolis Center
Fri 07:10:31 PM 38.1333 -83.2761 303° West 396 456 38,000  Level Indianapolis Center
Fri 07:11:33 PM 38.2167 -83.4056 309° West 413 475 38,000  Level Indianapolis Center
Fri 07:12:35 PM 38.3247 -83.4631 337° Northwest 421 484 38,000  Level Indianapolis Center
Fri 07:13:37 PM 38.4350 -83.5150 340° North 423 487 38,000  Level Indianapolis Center
Fri 07:14:39 PM 38.5419 -83.5697 338° Northwest 417 480 38,000  Level Indianapolis Center
Fri 07:15:41 PM 38.6544 -83.6414 334° Northwest 413 475 38,000  Level Indianapolis Center
Fri 07:16:43 PM 38.7564 -83.7056 334° Northwest 407 468 38,000  Level Indianapolis Center
Fri 07:17:45 PM 38.8594 -83.7708 334° Northwest 407 468 38,000  Level Indianapolis Center
Fri 07:18:47 PM 38.9608 -83.8367 333° Northwest 404 465 38,000  Level Indianapolis Center
Fri 07:19:49 PM 39.0608 -83.9028 333° Northwest 400 460 38,000  Level Indianapolis Center
Fri 07:20:51 PM 39.1625 -83.9681 334° Northwest 402 463 38,000  Level Indianapolis Center
Fri 07:21:53 PM 39.2633 -84.0325 334° Northwest 400 460 38,000  Level Indianapolis Center
Fri 07:22:55 PM 39.3806 -84.1117 332° Northwest 402 463 38,000  Level Indianapolis Center
Fri 07:23:57 PM 39.4828 -84.1781 333° Northwest 404 465 38,000  Level Indianapolis Center
Fri 07:24:58 PM 39.5856 -84.2461 333° Northwest 408 470 38,000  Level Indianapolis Center
Fri 07:26:00 PM 39.6889 -84.3133 333° Northwest 410 472 38,000  Level Indianapolis Center
Fri 07:27:02 PM 39.7917 -84.3822 333° Northwest 410 472 38,000  Level Indianapolis Center
Fri 07:28:04 PM 39.8958 -84.4508 333° Northwest 412 474 38,000  Level Indianapolis Center
Fri 07:29:06 PM 40.0000 -84.5192 333° Northwest 414 476 38,000  Level Indianapolis Center
Fri 07:30:08 PM 40.1022 -84.5892 332° Northwest 412 474 38,000  Level Indianapolis Center
Fri 07:31:09 PM 40.2067 -84.6600 333° Northwest 414 476 38,000  Level Indianapolis Center
Fri 07:32:11 PM 40.3117 -84.7289 333° Northwest 417 480 38,000 -387 Level Indianapolis Center
Fri 07:33:13 PM 40.4339 -84.8122 333° Northwest 419 482 37,200 -871 Descending Indianapolis Center
Fri 07:34:15 PM 40.5439 -84.8878 332° Northwest 435 501 36,200 -991 Descending Indianapolis Center
Fri 07:35:08 PM 40.6406 -84.9536 333° Northwest 453 521 35,300 -1,043 Descending Chicago Center
Fri 07:36:10 PM 40.7517 -85.0286 333° Northwest 455 524 34,200 -629 Descending Chicago Center
Fri 07:37:12 PM 40.8633 -85.1047 333° Northwest 454 522 34,000 -581 Descending Chicago Center
Fri 07:38:14 PM 40.9681 -85.1808 331° Northwest 442 509 33,000 -1,403 Descending Chicago Center
Fri 07:39:16 PM 41.0464 -85.2911 313° West 423 487 31,100 -1,210 Descending Chicago Center
Fri 07:40:18 PM 41.1328 -85.4322 309° West 413 475 30,500 -726 Descending Chicago Center
Fri 07:41:20 PM 41.1589 -85.5736 284° West 393 452 29,600 -1,152 Descending Chicago Center
Fri 07:42:23 PM 41.1800 -85.7058 282° West 370 426 28,100 -1,742 Descending Chicago Center
Fri 07:43:24 PM 41.1992 -85.8333 281° West 356 410 26,000 -2,195 Descending Chicago Center
Fri 07:44:26 PM 41.2197 -85.9689 281° West 372 428 23,600 -2,371 Descending Chicago Center
Fri 07:45:28 PM 41.2397 -86.1092 281° West 385 443 21,100 -2,419 Descending Chicago Center
Fri 07:46:30 PM 41.2611 -86.2478 282° West 383 441 18,600 -2,400 Descending Chicago Center
Fri 07:47:33 PM 41.2850 -86.4058 281° West 367 422 16,100 -1,248 Descending Chicago Center
Fri 07:48:35 PM 41.3042 -86.5342 281° West 357 411 16,000 -97 Descending Chicago Center
Fri 07:49:37 PM 41.3458 -86.6506 296° West 366 421 15,900 -774 Descending Chicago Center
Fri 07:50:39 PM 41.4478 -86.6936 342° North 384 442 14,400 -1,452 Descending Chicago Center
Fri 07:51:41 PM 41.5506 -86.7294 345° North 388 447 12,900 -1,161 Descending Chicago Center
Fri 07:52:43 PM 41.6714 -86.7722 345° North 383 441 12,000 -435 Descending Chicago Center
Fri 07:53:45 PM 41.7669 -86.8058 345° North 369 425 12,000  Level Chicago Center
Fri 07:54:47 PM 41.8497 -86.8433 341° North 332 382 12,000 -387 Level Chicago Center
Fri 07:55:49 PM 41.9097 -86.9328 312° West 329 379 11,200 -919 Descending Chicago Center
Fri 07:56:51 PM 41.9497 -87.0322 298° West 311 358 10,100 -726 Descending Chicago Center
Fri 07:57:53 PM 41.9822 -87.1503 290° West 282 325 9,700 -912 Descending Chicago Center
Fri 07:58:56 PM 41.9839 -87.2450 271° West 258 297 8,200 -1,248 Descending Chicago Center
Fri 07:59:58 PM 41.9836 -87.3342 270° West 243 280 7,100 -581 Descending Chicago Center
Fri 08:01:00 PM 41.9828 -87.4106 269° West 214 246 7,000 -97 Descending Chicago Center
Fri 08:02:02 PM 41.9836 -87.4731 271° West 176 203 6,900 -677 Descending Chicago Center
Fri 08:03:04 PM 41.9833 -87.5489 270° West 171 197 5,600 -1,065 Descending Chicago Center
Fri 08:04:06 PM 41.9825 -87.6114 269° West 170 196 4,700 -871 Descending Chicago Center
Fri 08:05:08 PM 41.9847 -87.6744 273° West 171 197 3,800 -871 Descending Chicago Center
Fri 08:06:10 PM 41.9847 -87.7378 270° West 170 196 2,900 -919 Descending Chicago Center
Fri 08:07:12 PM 41.9844 -87.8114 270° West 169 194 1,900 -774 Descending Chicago Center
Fri 08:08:14 PM 41.9850 -87.8519 271° West 159 183 1,300 -581 Descending Chicago Center
Fri 08:10:00 PM 41.9667 -87.9000 270° West  Level FlightAware Approximate

Login

Don't have an account? Register now (free) for customized features, flight alerts, and more!